Garrison, Maryland
Current Conditions -  °F | °C
As of 10:54 PM on Saturday 22 Nov 2014 (Local Time) from KBWI Reporting Station
Overcast Overcast  
Wind Chill:   Ceiling: 11000
Heat Index:   Visibility: 10mi
Dew Point: -8°   Wind: 6mph
Humidity: 37%   Direction: 230°SW
Pressure: 30.25"   Gusts: NA
Location:  39.41°N, 76.76°W
Report Text: KBWI 230354Z 23005KT 10SM OVC110 06/M08 A3025 RMK AO2 SLP245 T00611078
Loading
Personal Weather Stations






























Interactive Weather Map New forecast layout! Learn more

10-Day Weather Forecast

Advertisements
Track Severe Weather on mobile